Time;durP1;ratioP1;P1;durP2;ratioP2;P2;SDS_P1;SDS_P2;PMS_P1;PMS_P2;Temp;Humidity;BMP_temperature;BMP_pressure;BME280_temperature;BME280_humidity;BME280_pressure;Samples;Min_cycle;Max_cycle;Signal;HPM_P1;HPM_P2
2021/12/07 00:00:08;;;;;;;;;;;;;;;0.01;100.00;100456.78;5077856;28;19912;-48
2021/12/07 00:02:33;;;;;;;;;;;;;;;-0.01;100.00;100464.75;5078582;28;19919;-44
2021/12/07 00:04:58;;;;;;;;;;;;;;;0.02;100.00;100465.50;5077629;28;19912;-44
2021/12/07 00:07:23;;;;;;;;;;;;;;;0.03;100.00;100477.69;5078006;28;20394;-43
2021/12/07 00:09:50;;;;;;;;;;;;;;;0.03;100.00;100468.00;5072047;28;19988;-44
2021/12/07 00:12:15;;;;;;;;;;;;;;;0.06;100.00;100461.75;5074898;28;19943;-42
2021/12/07 00:14:41;;;;;;;;;;;;;;;0.06;100.00;100467.81;5078406;28;19980;-44
2021/12/07 00:17:07;;;;;;;;;;;;;;;0.06;100.00;100470.44;5077819;28;19912;-43
2021/12/07 00:19:33;;;;;;;;;;;;;;;0.07;100.00;100468.66;5071326;28;19913;-42
2021/12/07 00:21:59;;;;;;;;;;;;;;;0.05;100.00;100463.53;5078272;28;19912;-43
2021/12/07 00:24:24;;;;;;;;;;;;;;;0.07;100.00;100474.75;5077110;28;19924;-43
2021/12/07 00:26:49;;;;;;;;;;;;;;;0.10;100.00;100473.69;5076411;28;20274;-42
2021/12/07 00:29:15;;;;;;;;;;;;;;;0.13;100.00;100473.50;5077391;28;20407;-43
2021/12/07 00:31:50;;;;;;;;;;;;;;;0.13;100.00;100481.38;5078321;28;19968;-45
2021/12/07 00:34:37;;;;;;;;;;;;;;;0.16;100.00;100478.56;5077470;28;20008;-42
2021/12/07 00:37:02;;;;;;;;;;;;;;;0.20;100.00;100484.44;5076971;28;19912;-45
2021/12/07 00:39:28;;;;;;;;;;;;;;;0.24;100.00;100481.50;5077310;28;19914;-43
2021/12/07 00:41:54;;;;;;;;;;;;;;;0.27;100.00;100478.69;5073904;28;19915;-44
2021/12/07 00:44:20;;;;;;;;;;;;;;;0.31;100.00;100489.81;5072836;28;20007;-43
2021/12/07 00:46:47;;;;;;;;;;;;;;;0.33;100.00;100495.81;5064876;28;19919;-43
2021/12/07 00:49:12;;;;;;;;;;;;;;;0.37;100.00;100499.88;5077120;28;19903;-44
2021/12/07 00:51:38;;;;;;;;;;;;;;;0.39;100.00;100500.66;5074214;28;20369;-43
2021/12/07 00:54:03;;;;;;;;;;;;;;;0.43;100.00;100504.75;5072812;28;20446;-43
2021/12/07 00:56:28;;;;;;;;;;;;;;;0.50;100.00;100511.25;5076134;28;19926;-43
2021/12/07 00:58:54;;;;;;;;;;;;;;;0.55;100.00;100503.88;5077182;28;19912;-42
2021/12/07 01:01:19;;;;;;;;;;;;;;;0.65;100.00;100513.78;5076010;28;19912;-44
2021/12/07 01:03:45;;;;;;;;;;;;;;;0.71;100.00;100522.09;5077857;28;19912;-47
2021/12/07 01:25:05;;;;;;;;;;;;;;;1.17;100.00;100554.00;5075728;28;20031;-43
2021/12/07 01:27:30;;;;;;;;;;;;;;;1.23;100.00;100551.78;5075182;28;20026;-43
2021/12/07 01:30:06;;;;;;;;;;;;;;;1.29;100.00;100561.03;5076444;28;19911;-45
2021/12/07 01:37:57;;;;;;;;;;;;;;;1.45;100.00;100573.97;5075160;28;20345;-45
2021/12/07 01:40:35;;;;;;;;;;;;;;;1.51;100.00;100575.31;5075352;28;20165;-41
2021/12/07 01:51:02;;;;;;;;;;;;;;;1.62;100.00;100597.28;5076279;28;19926;-41
2021/12/07 02:01:39;;;;;;;;;;;;;;;1.63;100.00;100606.00;5075807;28;20022;-44
2021/12/07 02:04:04;;;;;;;;;;;;;;;1.67;100.00;100612.75;5075913;28;20691;-44
2021/12/07 02:06:30;;;;;;;;;;;;;;;1.67;100.00;100615.38;5075508;28;19901;-44
2021/12/07 02:08:55;;;;;;;;;;;;;;;1.68;100.00;100617.91;5076520;28;19947;-42
2021/12/07 02:11:20;;;;;;;;;;;;;;;1.75;100.00;100625.34;5074070;28;20382;-43
2021/12/07 02:16:12;;;;;;;;;;;;;;;1.80;100.00;100626.72;5072141;28;20015;-43
2021/12/07 02:18:38;;;;;;;;;;;;;;;1.83;100.00;100636.19;5075497;28;19907;-43
2021/12/07 02:21:32;;;;;;;;;;;;;;;1.87;100.00;100637.66;5075045;28;20398;-42
2021/12/07 02:23:57;;;;;;;;;;;;;;;1.88;100.00;100641.94;5053388;28;20339;-43
2021/12/07 02:26:22;;;;;;;;;;;;;;;1.94;100.00;100648.59;5069226;28;19923;-42
2021/12/07 02:28:52;;;;;;;;;;;;;;;1.93;100.00;100646.91;5069472;28;19912;-43
2021/12/07 02:31:17;;;;;;;;;;;;;;;1.98;100.00;100658.78;5075363;28;20279;-42
2021/12/07 02:33:43;;;;;;;;;;;;;;;2.00;100.00;100656.03;5074959;28;20010;-43
2021/12/07 02:36:08;;;;;;;;;;;;;;;2.05;100.00;100661.81;5074903;28;19923;-44
2021/12/07 02:38:34;;;;;;;;;;;;;;;2.08;100.00;100666.03;5074815;28;20300;-43
2021/12/07 02:40:59;;;;;;;;;;;;;;;2.11;100.00;100661.38;5074478;28;19919;-43
2021/12/07 02:43:25;;;;;;;;;;;;;;;2.14;100.00;100668.19;5075160;28;19922;-42
2021/12/07 02:45:50;;;;;;;;;;;;;;;2.15;100.00;100665.47;5065225;28;19915;-46
2021/12/07 02:48:15;;;;;;;;;;;;;;;2.16;100.00;100669.78;5070055;28;19947;-44
2021/12/07 02:50:40;;;;;;;;;;;;;;;2.15;100.00;100678.63;5075671;28;19995;-43
2021/12/07 02:53:06;;;;;;;;;;;;;;;2.13;100.00;100683.19;5074793;28;19915;-44
2021/12/07 02:55:32;;;;;;;;;;;;;;;2.09;100.00;100686.13;5074691;28;20084;-47
2021/12/07 02:57:58;;;;;;;;;;;;;;;2.04;100.00;100684.69;5075202;28;19939;-48
2021/12/07 03:00:28;;;;;;;;;;;;;;;2.02;100.00;100696.28;5074490;28;19993;-47
2021/12/07 03:03:00;;;;;;;;;;;;;;;1.96;100.00;100702.00;5074560;28;20314;-46
2021/12/07 03:27:10;;;;;;;;;;;;;;;1.69;100.00;100726.66;5079794;28;20006;-43
2021/12/07 03:29:35;;;;;;;;;;;;;;;1.63;100.00;100733.22;5079555;28;20014;-43
2021/12/07 03:32:00;;;;;;;;;;;;;;;1.55;100.00;100727.63;5080003;28;19930;-47
2021/12/07 03:34:26;;;;;;;;;;;;;;;1.50;100.00;100737.63;5080226;28;19930;-42
2021/12/07 03:36:51;;;;;;;;;;;;;;;1.45;100.00;100737.94;5080140;28;19962;-42
2021/12/07 03:39:16;;;;;;;;;;;;;;;1.44;100.00;100743.31;5080366;28;19945;-46
2021/12/07 03:41:41;;;;;;;;;;;;;;;1.40;100.00;100753.19;5080972;28;19904;-46
2021/12/07 03:44:06;;;;;;;;;;;;;;;1.35;100.00;100750.03;5079780;28;19908;-45
2021/12/07 03:46:32;;;;;;;;;;;;;;;1.35;100.00;100752.69;5080598;28;19957;-43
2021/12/07 03:48:57;;;;;;;;;;;;;;;1.36;100.00;100754.38;5080752;28;19907;-45
2021/12/07 03:51:22;;;;;;;;;;;;;;;1.37;100.00;100771.81;5078117;28;19970;-45
2021/12/07 03:53:47;;;;;;;;;;;;;;;1.35;100.00;100768.47;5078597;28;19982;-46
2021/12/07 03:56:12;;;;;;;;;;;;;;;1.34;100.00;100768.56;5071716;28;19974;-43
2021/12/07 03:58:38;;;;;;;;;;;;;;;1.35;100.00;100765.00;5078590;28;19939;-42
2021/12/07 04:01:06;;;;;;;;;;;;;;;1.35;100.00;100763.19;5081098;28;19965;-43
2021/12/07 04:03:34;;;;;;;;;;;;;;;1.36;100.00;100772.78;5080591;28;20011;-43
2021/12/07 04:06:04;;;;;;;;;;;;;;;1.36;100.00;100779.81;5079729;28;20015;-42
2021/12/07 04:08:29;;;;;;;;;;;;;;;1.34;100.00;100771.19;5078945;28;19912;-42
2021/12/07 04:10:55;;;;;;;;;;;;;;;1.35;100.00;100765.00;5079617;28;20354;-44
2021/12/07 04:13:20;;;;;;;;;;;;;;;1.32;100.00;100775.72;5080322;28;19908;-46
2021/12/07 04:15:45;;;;;;;;;;;;;;;1.28;100.00;100783.81;5062125;28;20478;-45
2021/12/07 04:18:11;;;;;;;;;;;;;;;1.24;100.00;100787.59;5080107;28;20435;-43
2021/12/07 04:20:36;;;;;;;;;;;;;;;1.19;100.00;100779.19;5079274;28;20599;-43
2021/12/07 04:23:02;;;;;;;;;;;;;;;1.16;100.00;100774.13;5079719;28;20597;-42
2021/12/07 04:25:27;;;;;;;;;;;;;;;1.14;100.00;100783.03;5078835;28;19926;-42
2021/12/07 04:27:53;;;;;;;;;;;;;;;1.12;100.00;100783.13;5080018;28;20407;-46
2021/12/07 04:30:20;;;;;;;;;;;;;;;1.14;100.00;100793.56;5079056;28;19908;-44
2021/12/07 04:32:45;;;;;;;;;;;;;;;1.14;100.00;100796.19;5080203;28;20025;-44
2021/12/07 04:35:11;;;;;;;;;;;;;;;1.11;100.00;100784.94;5078546;28;20010;-44
2021/12/07 04:37:38;;;;;;;;;;;;;;;1.06;100.00;100781.78;5078305;28;19912;-41
2021/12/07 04:40:04;;;;;;;;;;;;;;;1.01;100.00;100804.91;5078364;28;19908;-44
2021/12/07 04:42:29;;;;;;;;;;;;;;;0.98;100.00;100818.25;5078599;28;19912;-43
2021/12/07 04:44:59;;;;;;;;;;;;;;;0.96;100.00;100812.25;5061517;28;20294;-44
2021/12/07 04:50:38;;;;;;;;;;;;;;;0.94;100.00;100808.88;5026872;28;19913;-47
2021/12/07 04:58:23;;;;;;;;;;;;;;;0.85;100.00;100781.41;5078066;28;19919;-42
2021/12/07 05:00:49;;;;;;;;;;;;;;;0.93;100.00;100794.03;5079397;28;19912;-43
2021/12/07 05:03:15;;;;;;;;;;;;;;;0.97;100.00;100834.97;5079761;28;19919;-45
2021/12/07 05:05:46;;;;;;;;;;;;;;;0.98;100.00;100825.31;5060938;28;19908;-46
2021/12/07 05:08:15;;;;;;;;;;;;;;;0.96;100.00;100820.13;5079122;28;20597;-45
2021/12/07 05:18:33;;;;;;;;;;;;;;;0.93;100.00;100839.59;5066183;28;20463;-46
2021/12/07 05:24:00;;;;;;;;;;;;;;;0.91;100.00;100828.31;5077788;28;19958;-44
2021/12/07 05:34:54;;;;;;;;;;;;;;;1.01;100.00;100841.72;5077193;28;19984;-43
2021/12/07 05:40:06;;;;;;;;;;;;;;;0.96;100.00;100864.00;5075886;28;19964;-44
2021/12/07 05:42:31;;;;;;;;;;;;;;;0.96;100.00;100875.34;5078132;28;19954;-45
2021/12/07 05:44:56;;;;;;;;;;;;;;;0.96;100.00;100879.78;5059020;28;19939;-43
2021/12/07 05:47:22;;;;;;;;;;;;;;;0.97;100.00;100884.06;5077562;28;19950;-44
2021/12/07 05:49:47;;;;;;;;;;;;;;;0.99;100.00;100887.47;5077679;28;20268;-45
2021/12/07 05:52:13;;;;;;;;;;;;;;;1.00;100.00;100890.00;5076862;28;19908;-44
2021/12/07 05:54:38;;;;;;;;;;;;;;;1.01;100.00;100896.94;5074529;28;19927;-43
2021/12/07 05:57:04;;;;;;;;;;;;;;;1.02;100.00;100905.66;5073371;28;19988;-42
2021/12/07 05:59:29;;;;;;;;;;;;;;;1.02;100.00;100910.94;5074863;28;20007;-45
2021/12/07 06:01:54;;;;;;;;;;;;;;;0.99;100.00;100906.72;5076229;28;20010;-46
2021/12/07 06:04:19;;;;;;;;;;;;;;;1.02;100.00;100910.94;5075309;28;19908;-43
2021/12/07 06:06:44;;;;;;;;;;;;;;;0.99;100.00;100914.63;5075510;28;20193;-44
2021/12/07 06:09:10;;;;;;;;;;;;;;;0.98;100.00;100915.53;5074816;28;19908;-46
2021/12/07 06:11:35;;;;;;;;;;;;;;;0.95;100.00;100913.13;5075668;28;20022;-42
2021/12/07 06:14:00;;;;;;;;;;;;;;;0.91;100.00;100901.94;5074656;28;19950;-45
2021/12/07 06:16:30;;;;;;;;;;;;;;;0.90;100.00;100905.53;5075056;28;20363;-41
2021/12/07 06:18:55;;;;;;;;;;;;;;;0.88;100.00;100904.78;5076150;28;20047;-42
2021/12/07 06:21:20;;;;;;;;;;;;;;;0.86;100.00;100898.75;5074296;28;20026;-44
2021/12/07 06:23:45;;;;;;;;;;;;;;;0.83;100.00;100891.09;5068038;28;20007;-41
2021/12/07 06:26:11;;;;;;;;;;;;;;;0.82;100.00;100901.69;5069661;28;19989;-43
2021/12/07 06:28:36;;;;;;;;;;;;;;;0.83;100.00;100908.63;5073683;28;19919;-44
2021/12/07 06:31:01;;;;;;;;;;;;;;;0.84;100.00;100910.31;5074500;28;20572;-43
2021/12/07 06:33:26;;;;;;;;;;;;;;;0.86;100.00;100913.69;5074755;28;19908;-42
2021/12/07 06:35:57;;;;;;;;;;;;;;;0.84;100.00;100919.06;5066026;28;19920;-43
2021/12/07 06:38:22;;;;;;;;;;;;;;;0.84;100.00;100920.84;5074118;28;20368;-42
2021/12/07 06:40:48;;;;;;;;;;;;;;;0.86;100.00;100919.78;5073831;28;20093;-42
2021/12/07 06:43:13;;;;;;;;;;;;;;;0.84;100.00;100924.31;5075955;28;19963;-46
2021/12/07 06:45:38;;;;;;;;;;;;;;;0.85;100.00;100923.38;5074746;28;19955;-42
2021/12/07 06:48:04;;;;;;;;;;;;;;;0.84;100.00;100920.84;5074603;28;20035;-43
2021/12/07 06:50:29;;;;;;;;;;;;;;;0.84;100.00;100924.31;5069951;28;20351;-41
2021/12/07 06:52:54;;;;;;;;;;;;;;;0.82;100.00;100920.94;5061763;28;19926;-45
2021/12/07 06:55:20;;;;;;;;;;;;;;;0.78;100.00;100927.34;5073526;28;19999;-41
2021/12/07 06:57:45;;;;;;;;;;;;;;;0.73;100.00;100930.25;5075664;28;20172;-43
2021/12/07 07:00:11;;;;;;;;;;;;;;;0.72;100.00;100925.91;5077573;28;19991;-43
2021/12/07 07:02:36;;;;;;;;;;;;;;;0.69;100.00;100928.72;5080220;28;19904;-42
2021/12/07 07:05:01;;;;;;;;;;;;;;;0.68;100.00;100936.72;5078393;28;19926;-46
2021/12/07 07:07:27;;;;;;;;;;;;;;;0.66;100.00;100942.09;5079973;28;20120;-43
2021/12/07 07:09:52;;;;;;;;;;;;;;;0.63;100.00;100944.91;5061347;28;19999;-41
2021/12/07 07:12:17;;;;;;;;;;;;;;;0.63;100.00;100944.03;5080005;28;19916;-43
2021/12/07 07:14:43;;;;;;;;;;;;;;;0.65;100.00;100950.06;5080159;28;20384;-41
2021/12/07 07:17:08;;;;;;;;;;;;;;;0.63;100.00;100947.53;5080017;28;19963;-42
2021/12/07 07:19:33;;;;;;;;;;;;;;;0.62;100.00;100931.84;5078199;28;19911;-44
2021/12/07 07:22:01;;;;;;;;;;;;;;;0.58;100.00;100936.47;5080096;28;19937;-42
2021/12/07 07:24:26;;;;;;;;;;;;;;;0.55;100.00;100936.63;5078203;28;20391;-42
2021/12/07 07:26:52;;;;;;;;;;;;;;;0.51;100.00;100933.34;5080104;28;20175;-43
2021/12/07 07:29:17;;;;;;;;;;;;;;;0.50;100.00;100941.34;5078883;28;19900;-42
2021/12/07 07:31:42;;;;;;;;;;;;;;;0.50;100.00;100950.06;5078997;28;20208;-43
2021/12/07 07:34:07;;;;;;;;;;;;;;;0.51;100.00;100950.88;5079471;28;20027;-43
2021/12/07 07:36:33;;;;;;;;;;;;;;;0.49;100.00;100958.03;5094422;28;19919;-43
2021/12/07 07:38:58;;;;;;;;;;;;;;;0.47;100.00;100958.13;5098449;28;19926;-43
2021/12/07 07:41:24;;;;;;;;;;;;;;;0.45;100.00;100959.16;5081939;28;19945;-42
2021/12/07 07:43:49;;;;;;;;;;;;;;;0.44;100.00;100955.69;5099507;28;20501;-42
2021/12/07 07:46:14;;;;;;;;;;;;;;;0.46;100.00;100958.19;5100167;28;19982;-41
2021/12/07 07:48:40;;;;;;;;;;;;;;;0.50;100.00;100954.47;5081171;28;19926;-42
2021/12/07 07:51:05;;;;;;;;;;;;;;;0.52;100.00;100945.53;5080355;28;19915;-43
2021/12/07 07:53:30;;;;;;;;;;;;;;;0.56;100.00;100946.19;5080945;28;19906;-44
2021/12/07 07:55:55;;;;;;;;;;;;;;;0.59;100.00;100940.75;5075438;28;19996;-42
2021/12/07 07:58:21;;;;;;;;;;;;;;;0.62;100.00;100945.81;5057795;28;19913;-42
2021/12/07 08:00:46;;;;;;;;;;;;;;;0.63;100.00;100931.75;5058667;28;19908;-43
2021/12/07 08:03:11;;;;;;;;;;;;;;;0.65;100.00;100935.13;5070071;28;19976;-45
2021/12/07 08:05:37;;;;;;;;;;;;;;;0.69;100.00;100946.28;5085960;28;19911;-41
2021/12/07 08:08:02;;;;;;;;;;;;;;;0.76;100.00;100939.72;5096279;28;20188;-43
2021/12/07 08:10:28;;;;;;;;;;;;;;;0.84;100.00;100939.25;5095830;28;20402;-44
2021/12/07 08:12:55;;;;;;;;;;;;;;;0.88;100.00;100951.25;5083233;28;19943;-45
2021/12/07 08:15:20;;;;;;;;;;;;;;;0.88;100.00;100946.84;5083075;28;19915;-44
2021/12/07 08:17:45;;;;;;;;;;;;;;;0.88;100.00;100940.72;5078322;28;20379;-43
2021/12/07 08:20:10;;;;;;;;;;;;;;;0.89;100.00;100948.53;5079386;28;19967;-42
2021/12/07 08:22:35;;;;;;;;;;;;;;;0.92;100.00;100948.34;5080401;28;19915;-42
2021/12/07 08:25:01;;;;;;;;;;;;;;;0.95;100.00;100955.22;5078996;28;20022;-43
2021/12/07 08:27:26;;;;;;;;;;;;;;;1.00;100.00;100971.53;5080151;28;19961;-42
2021/12/07 08:29:52;;;;;;;;;;;;;;;1.02;100.00;100964.38;5080559;28;19918;-43
2021/12/07 08:32:17;;;;;;;;;;;;;;;1.07;100.00;100964.06;5080230;28;19908;-42
2021/12/07 08:34:42;;;;;;;;;;;;;;;1.10;100.00;100972.66;5080459;28;19966;-44
2021/12/07 08:37:07;;;;;;;;;;;;;;;1.14;100.00;100969.78;5080189;28;19973;-42
2021/12/07 08:39:34;;;;;;;;;;;;;;;1.14;100.00;100964.53;5078164;28;20403;-42
2021/12/07 08:42:00;;;;;;;;;;;;;;;1.14;100.00;100964.53;5080492;28;19999;-44
2021/12/07 08:44:25;;;;;;;;;;;;;;;1.14;100.00;100970.66;5079875;28;20086;-42
2021/12/07 08:46:51;;;;;;;;;;;;;;;1.13;100.00;100960.22;5080549;28;19947;-46
2021/12/07 08:49:16;;;;;;;;;;;;;;;1.16;100.00;100970.56;5080103;28;20374;-44
2021/12/07 08:51:42;;;;;;;;;;;;;;;1.16;100.00;100976.66;5077140;28;19912;-43
2021/12/07 08:54:29;;;;;;;;;;;;;;;1.21;100.00;100971.94;5076603;28;19947;-47
2021/12/07 08:59:45;;;;;;;;;;;;;;;1.26;100.00;100963.78;5076900;28;20263;-43
2021/12/07 09:02:21;;;;;;;;;;;;;;;1.29;100.00;100958.28;5085012;28;20006;-46
2021/12/07 09:04:47;;;;;;;;;;;;;;;1.36;100.00;100964.88;5077064;28;19920;-46
2021/12/07 09:07:12;;;;;;;;;;;;;;;1.35;100.00;100946.56;5077560;28;19961;-43
2021/12/07 09:09:37;;;;;;;;;;;;;;;1.37;100.00;100942.88;5075607;28;19999;-44
2021/12/07 09:12:05;;;;;;;;;;;;;;;1.41;100.00;100941.75;5077480;28;20196;-43
2021/12/07 09:14:31;;;;;;;;;;;;;;;1.45;100.00;100948.47;5076792;28;19908;-44
2021/12/07 09:16:56;;;;;;;;;;;;;;;1.47;100.00;100943.94;5057312;28;19912;-43
2021/12/07 09:19:22;;;;;;;;;;;;;;;1.49;100.00;100943.84;5057161;28;19938;-46
2021/12/07 09:21:48;;;;;;;;;;;;;;;1.50;100.00;100945.56;5035701;28;19908;-44
2021/12/07 09:24:13;;;;;;;;;;;;;;;1.52;100.00;100950.72;5035688;28;19908;-46
2021/12/07 09:26:38;;;;;;;;;;;;;;;1.52;100.00;100946.28;5035594;28;19931;-46
2021/12/07 09:29:04;;;;;;;;;;;;;;;1.52;100.00;100946.28;5036820;28;19943;-44
2021/12/07 09:31:30;;;;;;;;;;;;;;;1.54;100.00;100943.56;5035878;28;20294;-44
2021/12/07 09:33:55;;;;;;;;;;;;;;;1.55;100.00;100954.00;5035669;28;19917;-44
2021/12/07 09:36:20;;;;;;;;;;;;;;;1.63;100.00;100956.09;5035838;28;19988;-45
2021/12/07 09:38:46;;;;;;;;;;;;;;;1.66;100.00;100950.66;5035982;28;20098;-44
2021/12/07 09:41:12;;;;;;;;;;;;;;;1.71;100.00;100943.28;5037114;28;20335;-44
2021/12/07 09:43:37;;;;;;;;;;;;;;;1.75;100.00;100950.06;5036130;28;19962;-45
2021/12/07 09:46:03;;;;;;;;;;;;;;;1.80;100.00;100947.09;5036034;28;20432;-45
2021/12/07 09:48:28;;;;;;;;;;;;;;;1.83;100.00;100950.41;5037108;28;20763;-45
2021/12/07 09:50:54;;;;;;;;;;;;;;;1.89;100.00;100937.75;5036329;28;20003;-46
2021/12/07 09:53:20;;;;;;;;;;;;;;;1.94;100.00;100944.41;5035863;28;19919;-45
2021/12/07 09:55:47;;;;;;;;;;;;;;;1.99;100.00;100950.19;5035493;28;20257;-43
2021/12/07 09:58:12;;;;;;;;;;;;;;;2.08;100.00;100954.00;5036664;28;20276;-44
2021/12/07 10:00:38;;;;;;;;;;;;;;;2.12;100.00;100957.28;5035979;28;19995;-45
2021/12/07 10:03:03;;;;;;;;;;;;;;;2.17;100.00;100942.88;5036048;28;19919;-42
2021/12/07 10:05:30;;;;;;;;;;;;;;;2.20;100.00;100934.72;5035881;28;19939;-43
2021/12/07 10:07:56;;;;;;;;;;;;;;;2.26;100.00;100933.47;5052278;28;20192;-46
2021/12/07 10:10:29;;;;;;;;;;;;;;;2.32;100.00;100933.03;5055084;28;20513;-43
2021/12/07 10:12:54;;;;;;;;;;;;;;;2.36;100.00;100942.44;5056539;28;19920;-44
2021/12/07 10:15:20;;;;;;;;;;;;;;;2.40;100.00;100946.53;5054923;28;20222;-43
2021/12/07 10:18:17;;;;;;;;;;;;;;;2.45;100.00;100943.59;5056578;28;20173;-42
2021/12/07 10:20:45;;;;;;;;;;;;;;;2.50;100.00;100938.84;5021888;28;19916;-44
2021/12/07 10:23:13;;;;;;;;;;;;;;;2.53;100.00;100921.94;5056226;28;19908;-43
2021/12/07 10:25:40;;;;;;;;;;;;;;;2.57;100.00;100931.34;5055147;28;20004;-41
2021/12/07 10:28:22;;;;;;;;;;;;;;;2.60;100.00;100931.97;5056643;28;19912;-44
2021/12/07 10:30:48;;;;;;;;;;;;;;;2.67;100.00;100926.28;5056230;28;19909;-43
2021/12/07 10:33:16;;;;;;;;;;;;;;;2.72;100.00;100942.63;5056165;28;19955;-43
2021/12/07 10:35:41;;;;;;;;;;;;;;;2.74;100.00;100923.09;5062589;28;19908;-43
2021/12/07 10:38:13;;;;;;;;;;;;;;;2.78;100.00;100913.16;5075811;28;20056;-45
2021/12/07 10:40:55;;;;;;;;;;;;;;;2.82;100.00;100911.16;5075124;28;20389;-46
2021/12/07 10:43:38;;;;;;;;;;;;;;;2.86;100.00;100905.56;5056868;28;19908;-42
2021/12/07 10:46:23;;;;;;;;;;;;;;;2.93;100.00;100895.41;5062724;28;20144;-44
2021/12/07 10:48:48;;;;;;;;;;;;;;;2.98;100.00;100893.28;5055925;28;20013;-42
2021/12/07 10:51:13;;;;;;;;;;;;;;;3.03;100.00;100888.50;5054220;28;20347;-42
2021/12/07 10:53:38;;;;;;;;;;;;;;;3.08;100.00;100875.00;5057184;28;19913;-43
2021/12/07 10:56:03;;;;;;;;;;;;;;;3.13;100.00;100875.50;5060542;28;19920;-43
2021/12/07 10:58:30;;;;;;;;;;;;;;;3.15;100.00;100868.31;5060359;28;20003;-42
2021/12/07 11:00:55;;;;;;;;;;;;;;;3.24;100.00;100865.00;5061854;28;20403;-44
2021/12/07 11:03:25;;;;;;;;;;;;;;;3.29;100.00;100856.72;5060818;28;19947;-42
2021/12/07 11:05:54;;;;;;;;;;;;;;;3.32;100.00;100856.50;5060537;28;19948;-44
2021/12/07 11:08:20;;;;;;;;;;;;;;;3.35;100.00;100841.28;5059152;28;19938;-44
2021/12/07 11:10:48;;;;;;;;;;;;;;;3.38;100.00;100842.84;5064171;28;19912;-42
2021/12/07 11:13:24;;;;;;;;;;;;;;;3.44;100.00;100850.31;5057835;28;19949;-43
2021/12/07 11:15:53;;;;;;;;;;;;;;;3.49;100.00;100842.03;5060834;28;20244;-44
2021/12/07 11:18:23;;;;;;;;;;;;;;;3.51;100.00;100833.06;5065025;28;20403;-43
2021/12/07 11:20:49;;;;;;;;;;;;;;;3.56;100.00;100835.34;5063171;28;19916;-41
2021/12/07 11:23:18;;;;;;;;;;;;;;;3.63;100.00;100836.56;5058853;28;19927;-44
2021/12/07 11:31:19;;;;;;;;;;;;;;;3.74;100.00;100827.81;5063400;28;20054;-43
2021/12/07 11:33:45;;;;;;;;;;;;;;;3.78;100.00;100836.34;5060878;28;20260;-43
2021/12/07 11:36:16;;;;;;;;;;;;;;;3.80;100.00;100827.38;5060234;28;19908;-43
2021/12/07 11:38:41;;;;;;;;;;;;;;;3.83;100.00;100821.00;5061408;28;20007;-45
2021/12/07 11:41:13;;;;;;;;;;;;;;;3.87;100.00;100820.66;5062776;28;20193;-44
2021/12/07 11:43:49;;;;;;;;;;;;;;;3.89;100.00;100823.16;5065825;28;19916;-43
2021/12/07 11:46:18;;;;;;;;;;;;;;;3.92;100.00;100814.97;5052799;28;19916;-43
2021/12/07 11:48:43;;;;;;;;;;;;;;;3.97;100.00;100812.00;5063034;28;19908;-41
2021/12/07 11:51:08;;;;;;;;;;;;;;;4.01;100.00;100806.34;5068758;28;19920;-44
2021/12/07 11:53:33;;;;;;;;;;;;;;;4.06;100.00;100808.66;5058731;28;19916;-41
2021/12/07 11:56:00;;;;;;;;;;;;;;;4.11;100.00;100801.19;5060119;28;19916;-43
2021/12/07 11:58:27;;;;;;;;;;;;;;;4.15;100.00;100807.09;5057535;28;19959;-45
2021/12/07 12:00:53;;;;;;;;;;;;;;;4.20;100.00;100802.28;5059287;28;19908;-44
2021/12/07 12:03:19;;;;;;;;;;;;;;;4.27;100.00;100801.66;5051455;28;20415;-43
2021/12/07 12:05:46;;;;;;;;;;;;;;;4.33;100.00;100781.84;5038735;28;20339;-47
2021/12/07 12:08:14;;;;;;;;;;;;;;;4.39;100.00;100783.16;5037792;28;19974;-43
2021/12/07 12:10:41;;;;;;;;;;;;;;;4.45;100.00;100780.03;5040239;28;19947;-43
2021/12/07 12:13:15;;;;;;;;;;;;;;;4.45;100.00;100778.22;5041337;28;20413;-43
2021/12/07 12:15:59;;;;;;;;;;;;;;;4.48;100.00;100780.63;5057587;28;20562;-46
2021/12/07 12:18:24;;;;;;;;;;;;;;;4.50;100.00;100772.56;5056756;28;19932;-43
2021/12/07 12:20:58;;;;;;;;;;;;;;;4.50;100.00;100756.69;5058248;28;19912;-44
2021/12/07 12:23:38;;;;;;;;;;;;;;;4.52;100.00;100759.22;5056943;28;19916;-45
2021/12/07 12:26:05;;;;;;;;;;;;;;;4.55;100.00;100746.59;5057319;28;19916;-44
2021/12/07 12:28:38;;;;;;;;;;;;;;;4.56;100.00;100736.84;5058262;28;19915;-44
2021/12/07 12:31:04;;;;;;;;;;;;;;;4.54;100.00;100731.66;5058868;28;20299;-45
2021/12/07 12:33:43;;;;;;;;;;;;;;;4.56;100.00;100736.84;5058479;28;20390;-45
2021/12/07 12:36:08;;;;;;;;;;;;;;;4.56;100.00;100740.31;5037970;28;19908;-43
2021/12/07 12:38:33;;;;;;;;;;;;;;;4.55;100.00;100730.72;5041589;28;19921;-42
2021/12/07 12:41:09;;;;;;;;;;;;;;;4.53;100.00;100727.34;5058047;28;19919;-42
2021/12/07 12:43:40;;;;;;;;;;;;;;;4.58;100.00;100721.66;5038529;28;20388;-44
2021/12/07 12:46:06;;;;;;;;;;;;;;;4.59;100.00;100715.44;5038453;28;20432;-42
2021/12/07 12:48:32;;;;;;;;;;;;;;;4.64;100.00;100702.66;5038431;28;19959;-47
2021/12/07 12:50:58;;;;;;;;;;;;;;;4.65;100.00;100694.59;5055130;28;20011;-46
2021/12/07 12:53:24;;;;;;;;;;;;;;;4.68;100.00;100690.84;5037867;28;19999;-42
2021/12/07 12:55:52;;;;;;;;;;;;;;;4.70;100.00;100681.00;5058889;28;19909;-45
2021/12/07 12:58:20;;;;;;;;;;;;;;;4.71;100.00;100658.03;5055768;28;20015;-43
2021/12/07 13:01:00;;;;;;;;;;;;;;;4.73;100.00;100656.91;5058198;28;20007;-42
2021/12/07 13:03:25;;;;;;;;;;;;;;;4.74;100.00;100653.31;5057952;28;20379;-43
2021/12/07 13:06:00;;;;;;;;;;;;;;;4.76;100.00;100639.97;5057113;28;19916;-42
2021/12/07 13:08:25;;;;;;;;;;;;;;;4.79;100.00;100637.91;5038124;28;19912;-42
2021/12/07 13:10:54;;;;;;;;;;;;;;;4.77;100.00;100621.31;5053736;28;20441;-43
2021/12/07 13:13:23;;;;;;;;;;;;;;;4.78;100.00;100616.84;5037476;28;19920;-44
2021/12/07 13:15:48;;;;;;;;;;;;;;;4.79;100.00;100605.31;5038343;28;20386;-41
2021/12/07 13:18:19;;;;;;;;;;;;;;;4.82;100.00;100587.38;5047470;28;19928;-42
2021/12/07 13:20:44;;;;;;;;;;;;;;;4.88;100.00;100577.25;5055591;28;19916;-47
2021/12/07 13:23:10;;;;;;;;;;;;;;;4.94;100.00;100572.25;5052311;28;19939;-44
2021/12/07 13:25:41;;;;;;;;;;;;;;;4.96;100.00;100577.44;5047615;28;20102;-42
2021/12/07 13:28:12;;;;;;;;;;;;;;;4.97;100.00;100576.44;5045504;28;19912;-44
2021/12/07 13:30:40;;;;;;;;;;;;;;;4.94;100.00;100574.91;5046999;28;19941;-42
2021/12/07 13:33:12;;;;;;;;;;;;;;;4.93;100.00;100567.09;5061728;28;19915;-44
2021/12/07 13:35:37;;;;;;;;;;;;;;;4.92;100.00;100573.34;5057610;28;19916;-45
2021/12/07 13:38:13;;;;;;;;;;;;;;;4.93;100.00;100580.31;5059521;28;20387;-43
2021/12/07 13:40:38;;;;;;;;;;;;;;;4.93;100.00;100577.69;5056735;28;20365;-44
2021/12/07 13:43:04;;;;;;;;;;;;;;;4.91;100.00;100572.53;5049539;28;19916;-46
2021/12/07 13:45:29;;;;;;;;;;;;;;;4.86;100.00;100566.78;5056532;28;19915;-45
2021/12/07 13:47:54;;;;;;;;;;;;;;;4.83;100.00;100554.63;5070099;28;20383;-45
2021/12/07 13:50:25;;;;;;;;;;;;;;;4.80;100.00;100551.41;5058715;28;21002;-45
2021/12/07 13:52:52;;;;;;;;;;;;;;;4.70;100.00;100543.44;5045998;28;19919;-42
2021/12/07 13:55:19;;;;;;;;;;;;;;;4.72;100.00;100552.09;5031508;28;20003;-45
2021/12/07 13:57:46;;;;;;;;;;;;;;;4.67;100.00;100549.00;5053943;28;20411;-45
2021/12/07 14:00:13;;;;;;;;;;;;;;;4.62;100.00;100535.31;5051094;28;19913;-44
2021/12/07 14:02:39;;;;;;;;;;;;;;;4.57;100.00;100535.69;5026714;28;19916;-45
2021/12/07 14:05:08;;;;;;;;;;;;;;;4.54;100.00;100530.66;5043638;28;19916;-41
2021/12/07 14:07:33;;;;;;;;;;;;;;;4.50;100.00;100523.97;5057505;28;20233;-44
2021/12/07 14:10:07;;;;;;;;;;;;;;;4.45;100.00;100515.59;5050590;28;19973;-42
2021/12/07 14:12:32;;;;;;;;;;;;;;;4.39;100.00;100514.28;5059694;28;19977;-42
2021/12/07 14:15:05;;;;;;;;;;;;;;;4.36;100.00;100517.22;5044874;28;19959;-44
2021/12/07 14:17:37;;;;;;;;;;;;;;;4.33;100.00;100508.66;5056879;28;20626;-42